Terminal Aerodrome Forecast
Issued by NWS

Current Version | Previous Version | Text Only | Print | Product List | Glossary Off
Versions: 1 2 3 4 5 6 7 8 9 10 11 12 13 14 15 16 17 18 19

000
FTUS41 KILN 071700
TAFLCK
TAF
KLCK 071730Z 0718/0818 22014G24KT P6SM VCSH BKN035
      TEMPO 0719/0722 5SM -TSRA BKN035CB
     FM072300 22012KT P6SM VCSH BKN035
     FM080900 20010KT P6SM VCSH BKN025
     FM081500 22012G20KT P6SM -SHRA VCTS BKN025CB=

USA.gov is the U.S. government's official web portal to all federal, state and local government web resources and services.